Time,TemperatureF,DewpointF,PressureIn,WindDirection,WindDirectionDegrees,WindSpeedMPH,WindSpeedGustMPH,Humidity,HourlyPrecipIn,Conditions,Clouds,dailyrainin,SoftwareType,DateUTC
2013-11-21 00:42:00,15.0,-4.0,-100.00,North,-999,0.0,0.0,41,-99.99,,,-99.99,,2013-11-21 08:42:00,
2013-11-21 01:43:00,13.0,-6.0,-100.00,North,-999,0.0,0.0,41,-99.99,,,-99.99,,2013-11-21 09:43:00,
2013-11-21 03:43:00,12.0,-5.0,-100.00,North,-999,0.0,0.0,45,-99.99,,,-99.99,,2013-11-21 11:43:00,
2013-11-21 04:11:00,12.0,-5.0,-100.00,North,-999,0.0,0.0,45,-99.99,,,-99.99,,2013-11-21 12:11:00,
2013-11-21 04:42:00,11.0,-5.0,-100.00,North,-999,0.0,0.0,46,-99.99,,,-99.99,,2013-11-21 12:42:00,
2013-11-21 05:21:00,11.0,-5.0,-100.00,North,-999,0.0,0.0,47,-99.99,,,-99.99,,2013-11-21 13:21:00,
2013-11-21 05:42:00,11.0,-5.0,-100.00,North,-999,0.0,0.0,48,-99.99,,,-99.99,,2013-11-21 13:42:00,
2013-11-21 06:11:00,11.0,-4.0,-100.00,North,-999,0.0,0.0,49,-99.99,,,-99.99,,2013-11-21 14:11:00,
2013-11-21 06:42:00,11.0,-5.0,-100.00,North,-999,0.0,0.0,48,-99.99,,,-99.99,,2013-11-21 14:42:00,
2013-11-21 07:43:00,11.0,-3.0,-100.00,North,-999,0.0,0.0,50,-99.99,,,-99.99,,2013-11-21 15:43:00,
2013-11-21 08:42:00,15.0,-2.0,-100.00,North,-999,0.0,0.0,46,-99.99,,,-99.99,,2013-11-21 16:42:00,
2013-11-21 11:22:00,25.0,-1.0,-100.00,North,-999,0.0,0.0,31,-99.99,,,-99.99,,2013-11-21 19:22:00,
2013-11-21 11:42:00,26.0,-1.0,-100.00,North,-999,0.0,0.0,30,-99.99,,,-99.99,,2013-11-21 19:42:00,
2013-11-21 12:21:00,28.0,-2.0,-100.00,North,-999,0.0,0.0,27,-99.99,,,-99.99,,2013-11-21 20:21:00,
2013-11-21 12:32:00,28.0,-2.0,-100.00,North,-999,0.0,0.0,27,-99.99,,,-99.99,,2013-11-21 20:32:00,
2013-11-21 13:21:00,27.0,-3.0,-100.00,North,-999,0.0,0.0,26,-99.99,,,-99.99,,2013-11-21 21:21:00,
2013-11-21 13:43:00,27.0,-4.0,-100.00,North,-999,0.0,0.0,25,-99.99,,,-99.99,,2013-11-21 21:43:00,
2013-11-21 14:23:00,28.0,-3.0,-100.00,North,-999,0.0,0.0,25,-99.99,,,-99.99,,2013-11-21 22:23:00,
2013-11-21 14:42:00,28.0,-3.0,-100.00,North,-999,0.0,0.0,25,-99.99,,,-99.99,,2013-11-21 22:42:00,
2013-11-21 15:42:00,27.0,-3.0,-100.00,North,-999,0.0,0.0,26,-99.99,,,-99.99,,2013-11-21 23:42:00,
2013-11-21 16:42:00,25.0,-4.0,-100.00,North,-999,0.0,0.0,28,-99.99,,,-99.99,,2013-11-22 00:42:00,
2013-11-21 17:22:00,22.0,-4.0,-100.00,North,-999,0.0,0.0,31,-99.99,,,-99.99,,2013-11-22 01:22:00,
2013-11-21 17:42:00,21.0,-4.0,-100.00,North,-999,0.0,0.0,33,-99.99,,,-99.99,,2013-11-22 01:42:00,
2013-11-21 18:21:00,19.0,-3.0,-100.00,North,-999,0.0,0.0,36,-99.99,,,-99.99,,2013-11-22 02:21:00,
2013-11-21 18:42:00,18.0,-4.0,-100.00,North,-999,0.0,0.0,37,-99.99,,,-99.99,,2013-11-22 02:42:00,
2013-11-21 18:53:00,17.0,-4.0,-100.00,North,-999,0.0,0.0,39,-99.99,,,-99.99,,2013-11-22 02:53:00,
2013-11-21 19:02:00,17.0,-4.0,-100.00,North,-999,0.0,0.0,39,-99.99,,,-99.99,,2013-11-22 03:02:00,
2013-11-21 19:21:00,16.0,-2.0,-100.00,North,-999,0.0,0.0,43,-99.99,,,-99.99,,2013-11-22 03:21:00,
2013-11-21 19:33:00,16.0,-2.0,-100.00,North,-999,0.0,0.0,43,-99.99,,,-99.99,,2013-11-22 03:33:00,
2013-11-21 19:54:00,15.0,-2.0,-100.00,North,-999,0.0,0.0,47,-99.99,,,-99.99,,2013-11-22 03:54:00,
2013-11-21 20:02:00,15.0,-2.0,-100.00,North,-999,0.0,0.0,47,-99.99,,,-99.99,,2013-11-22 04:02:00,
2013-11-21 20:43:00,14.0,-1.0,-100.00,North,-999,0.0,0.0,52,-99.99,,,-99.99,,2013-11-22 04:43:00,
2013-11-21 20:53:00,14.0,-1.0,-100.00,North,-999,0.0,0.0,52,-99.99,,,-99.99,,2013-11-22 04:53:00,
2013-11-21 21:02:00,14.0,-1.0,-100.00,North,-999,0.0,0.0,52,-99.99,,,-99.99,,2013-11-22 05:02:00,
2013-11-21 21:22:00,13.0,0.0,-100.00,North,-999,0.0,0.0,55,-99.99,,,-99.99,,2013-11-22 05:22:00,
2013-11-21 21:43:00,14.0,0.0,-100.00,North,-999,0.0,0.0,55,-99.99,,,-99.99,,2013-11-22 05:43:00,
2013-11-21 21:52:00,14.0,0.0,-100.00,North,-999,0.0,0.0,55,-99.99,,,-99.99,,2013-11-22 05:52:00,
2013-11-21 22:02:00,14.0,0.0,-100.00,North,-999,0.0,0.0,55,-99.99,,,-99.99,,2013-11-22 06:02:00,
2013-11-21 22:21:00,14.0,1.0,-100.00,North,-999,0.0,0.0,56,-99.99,,,-99.99,,2013-11-22 06:21:00,
2013-11-21 22:42:00,14.0,1.0,-100.00,North,-999,0.0,0.0,57,-99.99,,,-99.99,,2013-11-22 06:42:00,
2013-11-21 22:52:00,14.0,1.0,-100.00,North,-999,0.0,0.0,57,-99.99,,,-99.99,,2013-11-22 06:52:00,
2013-11-21 23:02:00,14.0,1.0,-100.00,North,-999,0.0,0.0,57,-99.99,,,-99.99,,2013-11-22 07:02:00,
2013-11-21 23:41:00,14.0,1.0,-100.00,North,-999,0.0,0.0,57,-99.99,,,-99.99,,2013-11-22 07:41:00,